Latest Weather Observations for Brisbane

IDQ60801

Issued at 6:02 pm EST Saturday 28 May 2016 (issued every 30 minutes, with the page automatically refreshed every 10 minutes)

About weather observations | Map of weather stations | Latest weather observations for QLD | Other Formats
Station Details ID: 040913 Name: BRISBANE Lat: -27.48 Lon: 153.04 Height: 8.13 m
Data from the previous 72 hours. | See also: Recent months at Brisbane
Date/Time
EST
Temp
°C
App
Temp
°C
Dew
Point
Rel
Hum
%
Delta-T
°C
Wind Press
QNH
hPa
Press
MSL
hPa
Rain
since 9 am
mm
Dir
 
Spd
km/h
Gust
km/h
Spd
kts
Gust
kts
28/06:00pm 20.1 16.1 2.9 32 8.1 W 13 28 7 15 1012.9 1012.9 0.0
28/05:30pm 20.5 16.5 2.8 31 8.3 W 13 28 7 15 1012.3 1012.3 0.0
28/05:00pm 21.1 16.4 2.9 30 8.6 W 17 32 9 17 1011.6 1011.6 0.0
28/04:30pm 21.6 16.4 3.8 31 8.6 WNW 20 37 11 20 1011.1 1011.1 0.0
28/04:00pm 22.2 17.3 4.3 31 8.8 WNW 19 33 10 18 1010.6 1010.6 0.0
28/03:30pm 22.4 17.3 4.0 30 9.0 WNW 20 39 11 21 1010.3 1010.3 0.0
28/03:00pm 22.7 17.2 3.8 29 9.2 W 22 44 12 24 1010.3 1010.3 0.0
28/02:30pm 23.0 17.9 4.0 29 9.3 W 20 44 11 24 1010.1 1010.1 0.0
28/02:00pm 23.2 18.5 5.2 31 9.0 WSW 19 43 10 23 1009.9 1009.9 0.0
28/01:30pm 23.0 18.6 5.0 31 9.0 W 17 30 9 16 1010.0 1010.0 0.0
28/01:00pm 22.4 17.5 4.9 32 8.7 WNW 20 32 11 17 1010.4 1010.4 0.0
28/12:30pm 22.9 18.5 4.9 31 8.9 W 17 41 9 22 1010.7 1010.7 0.0
28/12:00pm 21.8 18.0 5.7 35 8.1 W 15 28 8 15 1011.1 1011.1 0.0
28/11:30am 21.1 16.7 4.6 34 8.0 W 17 30 9 16 1011.5 1011.5 0.0
28/11:00am 20.7 16.7 5.1 36 7.7 W 15 28 8 15 1011.9 1011.9 0.0
28/10:30am 19.3 15.7 5.0 39 6.9 W 13 24 7 13 1012.6 1012.6 0.0
28/10:00am 19.3 16.5 5.0 39 6.9 W 9 17 5 9 1013.3 1013.3 0.0
28/09:30am 18.4 15.5 4.6 40 6.6 WSW 9 17 5 9 1013.5 1013.5 0.0
28/09:00am 18.1 15.3 5.0 42 6.3 W 9 17 5 9 1013.6 1013.6 0.0
28/08:30am 17.0 14.2 5.3 46 5.6 W 9 17 5 9 1013.5 1013.5 0.0
28/08:00am 16.1 13.6 4.8 47 5.3 W 7 15 4 8 1013.3 1013.3 0.0
28/07:30am 14.6 13.7 5.9 56 4.2 CALM 0 4 0 2 1013.1 1013.1 0.0
28/07:00am 12.0 10.8 4.7 61 3.3 CALM 0 2 0 1 1012.8 1012.8 0.0
28/06:30am 14.1 12.2 4.9 54 4.3 WSW 4 9 2 5 1012.5 1012.5 0.0
28/06:00am 13.9 11.4 4.8 54 4.2 W 7 13 4 7 1012.1 1012.1 0.0
28/05:30am 14.0 11.7 4.6 53 4.3 W 6 11 3 6 1012.0 1012.0 0.0
28/05:00am 14.0 11.8 5.1 55 4.2 W 6 9 3 5 1011.8 1011.8 0.0
28/04:30am 11.6 10.5 5.0 64 3.0 CALM 0 0 0 0 1011.7 1011.7 0.0
28/04:00am 11.6 10.4 4.6 62 3.2 CALM 0 0 0 0 1011.9 1011.9 0.0
28/03:30am 13.4 11.5 4.8 56 4.0 SSW 4 6 2 3 1011.7 1011.7 0.0
28/03:00am 13.9 11.7 5.3 56 4.0 WSW 6 9 3 5 1011.4 1011.4 0.0
28/02:30am 14.7 12.4 5.0 52 4.5 W 6 13 3 7 1011.5 1011.5 0.0
28/02:00am 12.7 11.7 5.4 61 3.4 CALM 0 4 0 2 1011.1 1011.1 0.0
28/01:30am 13.6 12.2 5.3 57 3.9 E 2 4 1 2 1011.1 1011.1 0.0
28/01:00am 15.3 13.8 5.2 51 4.8 NW 2 7 1 4 1011.1 1011.1 0.0
28/12:30am 16.0 14.2 5.6 50 5.0 WSW 4 9 2 5 1011.0 1011.0 0.0
28/12:00am 16.5 14.3 5.5 48 5.3 SW 6 13 3 7 1010.8 1010.8 0.0
 
Date/Time
EST
Temp
°C
App
Temp
°C
Dew
Point
Rel
Hum
%
Delta-T
°C
Wind Press
QNH
hPa
Press
MSL
hPa
Rain
since 9 am
mm
Dir
 
Spd
km/h
Gust
km/h
Spd
kts
Gust
kts
27/11:30pm 17.0 13.9 5.6 47 5.5 W 11 20 6 11 1010.6 1010.6 0.0
27/11:00pm 17.5 14.5 5.8 46 5.7 W 11 28 6 15 1010.8 1010.8 0.0
27/10:30pm 17.9 14.6 6.4 47 5.7 W 13 26 7 14 1010.9 1010.9 0.0
27/10:00pm 18.2 15.0 7.0 48 5.6 W 13 26 7 14 1010.6 1010.6 0.0
27/09:30pm 18.5 15.0 7.3 48 5.7 W 15 30 8 16 1010.4 1010.4 0.0
27/09:00pm 19.1 15.7 7.5 47 5.9 W 15 28 8 15 1010.4 1010.4 0.0
27/08:30pm 19.4 16.4 7.8 47 5.9 W 13 22 7 12 1010.6 1010.6 0.0
27/08:00pm 19.9 16.6 7.9 46 6.2 W 15 24 8 13 1010.4 1010.4 0.0
27/07:30pm 20.3 17.1 8.3 46 6.2 W 15 26 8 14 1010.2 1010.2 0.0
27/07:00pm 20.8 18.5 9.1 47 6.2 W 11 19 6 10 1009.6 1009.6 0.0
27/06:30pm 21.3 18.7 9.2 46 6.4 W 13 32 7 17 1009.1 1009.1 0.0
27/06:00pm 21.9 19.5 10.1 47 6.4 W 13 22 7 12 1008.4 1008.4 0.0
27/05:30pm 22.2 21.0 10.4 47 6.5 W 7 15 4 8 1008.0 1008.0 0.0
27/05:00pm 23.0 20.6 10.1 44 7.1 W 13 22 7 12 1007.8 1007.8 0.0
27/04:30pm 23.7 20.8 9.7 41 7.6 W 15 28 8 15 1007.1 1007.1 0.0
27/04:00pm 24.4 21.0 9.2 38 8.3 WNW 17 28 9 15 1006.8 1006.8 0.0
27/03:30pm 24.8 21.4 9.1 37 8.5 W 17 32 9 17 1006.2 1006.2 0.0
27/03:00pm 25.0 21.2 9.7 38 8.4 W 20 37 11 20 1006.2 1006.2 0.0
27/02:30pm 25.5 22.1 10.5 39 8.4 W 19 33 10 18 1006.5 1006.5 0.0
27/02:00pm 24.9 21.1 11.1 42 7.8 W 22 43 12 23 1006.6 1006.6 0.0
27/01:30pm 24.6 20.8 11.2 43 7.5 W 22 41 12 22 1006.6 1006.6 0.0
27/01:00pm 24.3 21.1 11.3 44 7.3 W 19 33 10 18 1006.7 1006.7 0.0
27/12:30pm 23.9 20.6 10.9 44 7.2 W 19 39 10 21 1007.2 1007.2 0.0
27/12:00pm 24.6 21.3 10.8 42 7.7 W 19 32 10 17 1007.6 1007.6 0.0
27/11:30am 24.2 20.9 11.5 45 7.2 W 20 41 11 22 1007.7 1007.7 0.0
27/11:00am 23.3 19.7 12.0 49 6.4 WNW 22 37 12 20 1008.1 1008.1 0.0
27/10:30am 23.4 21.8 13.8 54 5.6 W 15 28 8 15 1008.3 1008.3 0.0
27/10:00am 22.7 19.9 14.3 59 4.9 W 22 35 12 19 1009.1 1009.1 0.0
27/09:30am 22.9 22.3 14.5 59 5.0 W 11 28 6 15 1009.2 1009.2 0.0
27/09:00am 22.1 20.3 14.5 62 4.5 WNW 17 32 9 17 1008.6 1008.6 0.0
27/08:30am 21.4 19.7 14.8 66 3.9 WNW 17 26 9 14 1008.5 1008.5 0.0
27/08:00am 21.4 20.9 15.0 67 3.8 W 11 24 6 13 1008.4 1008.4 0.0
27/07:30am 20.7 19.1 15.0 70 3.4 W 17 30 9 16 1008.5 1008.5 0.0
27/07:00am 21.0 20.5 14.9 68 3.6 W 11 24 6 13 1008.0 1008.0 0.0
27/06:30am 21.2 20.8 15.3 69 3.5 W 11 19 6 10 1007.5 1007.5 0.0
27/06:00am 21.4 21.1 15.5 69 3.5 W 11 22 6 12 1007.3 1007.3 0.0
27/05:30am 21.3 21.0 15.4 69 3.5 W 11 20 6 11 1006.7 1006.7 0.0
27/05:00am 21.4 21.4 15.3 68 3.6 W 9 15 5 8 1006.5 1006.5 0.0
27/04:30am 21.3 21.4 15.4 69 3.5 W 9 19 5 10 1006.9 1006.9 0.0
27/04:00am 20.9 20.8 15.0 69 3.5 SW 9 15 5 8 1006.7 1006.7 0.0
27/03:30am 18.6 20.1 14.7 78 2.3 CALM 0 6 0 3 1006.3 1006.3 0.0
27/03:00am 18.4 19.8 14.5 78 2.3 CALM 0 0 0 0 1006.5 1006.5 0.0
27/02:30am 18.8 20.2 14.3 75 2.6 CALM 0 0 0 0 1006.3 1006.3 0.0
27/02:00am 19.6 21.2 15.0 75 2.7 CALM 0 2 0 1 1006.5 1006.5 0.0
27/01:30am 18.6 20.1 14.7 78 2.3 CALM 0 0 0 0 1007.0 1007.0 0.0
27/01:00am 18.9 20.2 14.2 74 2.7 CALM 0 0 0 0 1006.6 1006.6 0.0
27/12:30am 20.1 21.7 14.9 72 3.0 CALM 0 2 0 1 1006.9 1006.9 0.0
27/12:00am 20.5 22.1 14.8 70 3.3 CALM 0 0 0 0 1007.7 1007.7 0.0
 
Date/Time
EST
Temp
°C
App
Temp
°C
Dew
Point
Rel
Hum
%
Delta-T
°C
Wind Press
QNH
hPa
Press
MSL
hPa
Rain
since 9 am
mm
Dir
 
Spd
km/h
Gust
km/h
Spd
kts
Gust
kts
26/11:30pm 21.3 23.0 15.2 68 3.6 CALM 0 2 0 1 1007.9 1007.9 0.0
26/11:00pm 22.9 23.6 15.7 64 4.3 W 6 11 3 6 1008.4 1008.4 0.0
26/10:30pm 23.2 23.8 15.8 63 4.5 NNW 7 22 4 12 1007.4 1007.4 0.0
26/10:00pm 23.1 23.2 15.4 62 4.6 NNW 9 20 5 11 1007.1 1007.1 0.0
26/09:30pm 23.3 23.4 15.6 62 4.6 N 9 19 5 10 1007.1 1007.1 0.0
26/09:00pm 22.9 23.6 15.7 64 4.3 NNE 6 15 3 8 1007.4 1007.4 0.0
26/08:30pm 23.1 23.9 16.4 66 4.1 NNW 7 17 4 9 1007.6 1007.6 0.0
26/08:00pm 23.1 24.3 16.9 68 3.8 N 6 17 3 9 1007.7 1007.7 0.0
26/07:30pm 23.4 24.6 16.9 67 4.0 NNE 6 13 3 7 1007.8 1007.8 0.0
26/07:00pm 23.9 24.8 16.7 64 4.4 NNE 7 15 4 8 1007.8 1007.8 0.0
26/06:30pm 24.1 24.6 16.6 63 4.6 NNW 9 22 5 12 1007.7 1007.7 0.0
26/06:00pm 24.5 24.7 14.6 54 5.9 N 7 19 4 10 1007.5 1007.5 0.0
26/05:30pm 24.3 24.6 14.4 54 5.9 NNE 6 11 3 6 1007.3 1007.3 0.0
26/05:00pm 24.6 25.2 15.2 55 5.7 NNE 6 13 3 7 1007.0 1007.0 0.0
26/04:30pm 25.1 25.8 16.0 57 5.5 NNE 7 13 4 7 1007.2 1007.2 0.0
26/04:00pm 25.3 25.9 16.7 59 5.3 NE 9 19 5 10 1007.1 1007.1 0.0
26/03:30pm 25.8 26.0 15.8 54 6.1 NE 9 19 5 10 1007.3 1007.3 0.0
26/03:00pm 26.5 25.8 14.3 47 7.3 NE 11 20 6 11 1007.5 1007.5 0.0
26/02:30pm 27.2 25.7 12.0 38 8.8 NE 11 19 6 10 1008.2 1008.2 0.0
26/02:00pm 27.7 26.6 12.1 38 9.0 NE 9 20 5 11 1008.5 1008.5 0.0
26/01:30pm 27.1 26.5 12.3 39 8.6 NE 7 15 4 8 1009.0 1009.0 0.0
26/01:00pm 26.4 25.5 11.3 39 8.6 NE 7 15 4 8 1009.6 1009.6 0.0
26/12:30pm 25.9 25.1 11.6 40 8.1 NE 7 13 4 7 1010.6 1010.6 0.0
26/12:00pm 26.4 25.0 9.7 35 9.2 NNE 7 13 4 7 1011.4 1011.4 0.0
26/11:30am 23.9 23.1 8.3 37 8.3 E 2 4 1 2 1012.4 1012.4 0.0
26/11:00am 23.5 23.0 9.5 41 7.6 ESE 2 4 1 2 1013.3 1013.3 0.0
26/10:30am 20.8 19.4 7.4 42 6.9 NNW 4 7 2 4 1014.2 1014.2 0.0
26/10:00am 19.6 18.5 7.0 44 6.4 WNW 2 6 1 3 1014.8 1014.8 0.0
26/09:30am 18.5 17.1 7.3 48 5.7 WSW 4 6 2 3 1015.4 1015.4 0.0
26/09:00am 16.8 16.0 6.6 51 5.0 CALM 0 4 0 2 1015.7 1015.7 0.0
26/08:30am 14.8 13.5 6.1 56 4.2 SSW 2 6 1 3 1015.7 1015.7 0.0
26/08:00am 13.3 11.9 5.7 60 3.6 SW 2 6 1 3 1015.9 1015.9 0.0
26/07:30am 11.7 9.9 5.3 65 2.9 SW 4 6 2 3 1015.8 1015.8 0.0
26/07:00am 10.0 8.5 5.2 72 2.2 WSW 2 7 1 4 1015.8 1015.8 0.0
26/06:30am 9.8 8.3 5.0 72 2.2 SW 2 4 1 2 1015.7 1015.7 0.0
26/06:00am 10.1 8.8 5.9 75 1.9 SW 2 6 1 3 1015.8 1015.8 0.0
26/05:30am 9.8 8.9 6.0 77 1.7 CALM 0 6 0 3 1015.4 1015.4 0.0
26/05:00am 10.7 9.2 6.6 76 1.9 WSW 4 7 2 4 1015.5 1015.5 0.0
26/04:30am 10.7 9.5 6.6 76 1.9 WSW 2 6 1 3 1015.4 1015.4 0.0
26/04:00am 11.1 10.0 6.8 75 2.0 WSW 2 6 1 3 1015.2 1015.2 0.0
26/03:30am 11.4 10.7 7.1 75 2.1 CALM 0 4 0 2 1015.4 1015.4 0.0
26/03:00am 12.1 10.7 7.2 72 2.4 WSW 4 6 2 3 1015.7 1015.7 0.0
26/02:30am 12.6 11.4 8.1 74 2.2 WSW 4 7 2 4 1016.1 1016.1 0.0
26/02:00am 12.2 11.4 8.1 76 2.0 WSW 2 4 1 2 1016.2 1016.2 0.0
26/01:30am 12.9 12.0 9.2 78 1.9 WSW 4 6 2 3 1016.4 1016.4 0.0
26/01:00am 12.3 12.3 9.9 85 1.2 CALM 0 2 0 1 1016.5 1016.5 0.0
26/12:30am 11.6 11.4 9.2 85 1.2 CALM 0 0 0 0 1016.7 1016.7 0.0
26/12:00am 12.1 11.8 8.8 80 1.6 CALM 0 0 0 0 1016.9 1016.9 0.0
 
Date/Time
EST
Temp
°C
App
Temp
°C
Dew
Point
Rel
Hum
%
Delta-T
°C
Wind Press
QNH
hPa
Press
MSL
hPa
Rain
since 9 am
mm
Dir
 
Spd
km/h
Gust
km/h
Spd
kts
Gust
kts
25/11:30pm 13.2 12.7 9.5 78 1.9 SSE 2 4 1 2 1017.2 1017.2 0.0
25/11:00pm 13.6 13.5 9.5 76 2.1 CALM 0 0 0 0 1017.2 1017.2 0.0
25/10:30pm 14.7 14.8 10.1 74 2.4 CALM 0 2 0 1 1017.2 1017.2 0.0
25/10:00pm 14.9 14.2 10.1 73 2.5 NW 4 6 2 3 1017.4 1017.4 0.0
25/09:30pm 14.4 13.7 10.2 76 2.2 NW 4 6 2 3 1017.3 1017.3 0.0
25/09:00pm 14.1 14.2 10.1 77 2.1 CALM 0 0 0 0 1017.1 1017.1 0.0
25/08:30pm 14.4 14.5 10.0 75 2.3 CALM 0 0 0 0 1017.2 1017.2 0.0
25/08:00pm 15.2 15.4 10.4 73 2.5 CALM 0 2 0 1 1017.0 1017.0 0.0
25/07:30pm 15.7 15.9 10.5 71 2.7 CALM 0 2 0 1 1016.8 1016.8 0.0
25/07:00pm 16.3 16.3 9.9 66 3.3 CALM 0 4 0 2 1016.6 1016.6 0.0
25/06:30pm 17.2 16.6 9.1 59 4.2 NNE 2 4 1 2 1016.4 1016.4 0.0

Other Formats:

Comma delimited format used in spreadsheet applications
http://www.bom.gov.au/fwo/IDQ60801/IDQ60801.94576.axf

JavaScript Object Notation format (JSON) in row-major order
http://www.bom.gov.au/fwo/IDQ60801/IDQ60801.94576.json